Silt, Colorado
Current Conditions -  °F | °C
As of 9:53 PM on Wednesday 22 Oct 2014 (Local Time) from KRIL Reporting Station
Clear Clear  
Wind Chill: 44°   Ceiling: Unl
Heat Index: 46°   Visibility: 10mi
Dew Point: 41°   Wind: 5mph
Humidity: 83%   Direction: 210°SSW
Pressure: 30.23"   Gusts: NA
Location:  39.55°N, 107.66°W
Report Text: KRIL 230353Z AUTO 21004KT 10SM CLR 08/05 A3023 RMK AO2 SLP215 T00780050
Loading
Personal Weather Stations






























Interactive Weather Map
Tropical Storm Tracking
New forecast layout! Learn more

10-Day Weather Forecast

Advertisements
Track Severe Weather on mobile